sensor_id;sensor_type;location;lat;lon;timestamp;temperature;humidity
21637;DHT22;10980;49.596;6.142;2023-02-28T00:00:17;-1.10;85.10
21637;DHT22;10980;49.596;6.142;2023-02-28T00:03:40;-1.10;85.30
21637;DHT22;10980;49.596;6.142;2023-02-28T00:07:02;-1.20;85.50
21637;DHT22;10980;49.596;6.142;2023-02-28T00:10:27;-1.20;85.50
21637;DHT22;10980;49.596;6.142;2023-02-28T00:13:52;-1.20;85.60
21637;DHT22;10980;49.596;6.142;2023-02-28T00:17:16;-1.20;85.80
21637;DHT22;10980;49.596;6.142;2023-02-28T00:20:43;-1.30;86.00
21637;DHT22;10980;49.596;6.142;2023-02-28T00:24:06;-1.30;86.00
21637;DHT22;10980;49.596;6.142;2023-02-28T00:27:29;-1.20;85.80
21637;DHT22;10980;49.596;6.142;2023-02-28T00:30:51;-1.20;86.00
21637;DHT22;10980;49.596;6.142;2023-02-28T00:34:15;-1.20;86.10
21637;DHT22;10980;49.596;6.142;2023-02-28T00:37:39;-1.20;86.20
21637;DHT22;10980;49.596;6.142;2023-02-28T00:41:01;-1.30;86.60
21637;DHT22;10980;49.596;6.142;2023-02-28T00:44:26;-1.30;86.60
21637;DHT22;10980;49.596;6.142;2023-02-28T00:47:48;-1.30;86.90
21637;DHT22;10980;49.596;6.142;2023-02-28T00:51:12;-1.30;87.30
21637;DHT22;10980;49.596;6.142;2023-02-28T00:54:34;-1.30;87.50
21637;DHT22;10980;49.596;6.142;2023-02-28T00:57:56;-1.30;88.00
21637;DHT22;10980;49.596;6.142;2023-02-28T01:01:20;-1.20;88.20
21637;DHT22;10980;49.596;6.142;2023-02-28T01:04:49;-1.20;88.30
21637;DHT22;10980;49.596;6.142;2023-02-28T01:08:14;-1.20;88.80
21637;DHT22;10980;49.596;6.142;2023-02-28T01:11:35;-1.20;88.70
21637;DHT22;10980;49.596;6.142;2023-02-28T01:14:58;-1.10;88.70
21637;DHT22;10980;49.596;6.142;2023-02-28T01:18:21;-1.20;89.00
21637;DHT22;10980;49.596;6.142;2023-02-28T01:21:43;-1.20;89.00
21637;DHT22;10980;49.596;6.142;2023-02-28T01:25:07;-1.20;89.30
21637;DHT22;10980;49.596;6.142;2023-02-28T01:28:29;-1.30;89.60
21637;DHT22;10980;49.596;6.142;2023-02-28T01:31:53;-1.30;90.10
21637;DHT22;10980;49.596;6.142;2023-02-28T01:35:16;-1.30;90.00
21637;DHT22;10980;49.596;6.142;2023-02-28T01:38:38;-1.30;90.10
21637;DHT22;10980;49.596;6.142;2023-02-28T01:42:00;-1.40;90.20
21637;DHT22;10980;49.596;6.142;2023-02-28T01:45:28;-1.40;90.40
21637;DHT22;10980;49.596;6.142;2023-02-28T01:52:35;-1.40;90.60
21637;DHT22;10980;49.596;6.142;2023-02-28T01:55:59;-1.40;90.70
21637;DHT22;10980;49.596;6.142;2023-02-28T01:59:56;-1.40;90.80
21637;DHT22;10980;49.596;6.142;2023-02-28T02:03:22;-1.30;90.70
21637;DHT22;10980;49.596;6.142;2023-02-28T02:06:45;-1.40;90.90
21637;DHT22;10980;49.596;6.142;2023-02-28T02:10:24;-1.40;91.00
21637;DHT22;10980;49.596;6.142;2023-02-28T02:17:46;-1.40;91.40
21637;DHT22;10980;49.596;6.142;2023-02-28T02:25:16;-1.40;91.50
21637;DHT22;10980;49.596;6.142;2023-02-28T02:29:01;-1.40;91.70
21637;DHT22;10980;49.596;6.142;2023-02-28T02:33:06;-1.40;91.70
21637;DHT22;10980;49.596;6.142;2023-02-28T02:37:33;-1.40;91.80
21637;DHT22;10980;49.596;6.142;2023-02-28T02:41:14;-1.50;91.90
21637;DHT22;10980;49.596;6.142;2023-02-28T02:44:47;-1.60;92.10
21637;DHT22;10980;49.596;6.142;2023-02-28T02:48:20;-1.70;92.30
21637;DHT22;10980;49.596;6.142;2023-02-28T02:51:47;-1.50;92.20
21637;DHT22;10980;49.596;6.142;2023-02-28T02:55:27;-1.60;92.40
21637;DHT22;10980;49.596;6.142;2023-02-28T02:58:54;-1.60;92.40
21637;DHT22;10980;49.596;6.142;2023-02-28T03:02:23;-1.60;92.50
21637;DHT22;10980;49.596;6.142;2023-02-28T03:05:50;-1.60;92.50
21637;DHT22;10980;49.596;6.142;2023-02-28T03:09:14;-1.60;92.50
21637;DHT22;10980;49.596;6.142;2023-02-28T03:12:44;-1.70;92.70
21637;DHT22;10980;49.596;6.142;2023-02-28T03:16:34;-1.70;92.80
21637;DHT22;10980;49.596;6.142;2023-02-28T03:20:25;-1.70;92.80
21637;DHT22;10980;49.596;6.142;2023-02-28T03:24:19;-1.70;92.90
21637;DHT22;10980;49.596;6.142;2023-02-28T03:28:02;-1.80;93.10
21637;DHT22;10980;49.596;6.142;2023-02-28T03:31:37;-1.80;93.20
21637;DHT22;10980;49.596;6.142;2023-02-28T03:35:19;-1.80;93.10
21637;DHT22;10980;49.596;6.142;2023-02-28T03:39:02;-1.80;93.10
21637;DHT22;10980;49.596;6.142;2023-02-28T03:42:31;-1.80;93.10
21637;DHT22;10980;49.596;6.142;2023-02-28T03:45:58;-1.80;93.20
21637;DHT22;10980;49.596;6.142;2023-02-28T03:49:37;-1.80;93.50
21637;DHT22;10980;49.596;6.142;2023-02-28T03:53:25;-1.80;93.70
21637;DHT22;10980;49.596;6.142;2023-02-28T03:57:02;-1.90;94.10
21637;DHT22;10980;49.596;6.142;2023-02-28T04:00:37;-2.00;94.50
21637;DHT22;10980;49.596;6.142;2023-02-28T04:04:03;-1.90;94.70
21637;DHT22;10980;49.596;6.142;2023-02-28T04:07:29;-1.90;95.10
21637;DHT22;10980;49.596;6.142;2023-02-28T04:14:45;-2.00;95.90
21637;DHT22;10980;49.596;6.142;2023-02-28T04:18:08;-2.00;96.10
21637;DHT22;10980;49.596;6.142;2023-02-28T04:21:41;-2.00;96.90
21637;DHT22;10980;49.596;6.142;2023-02-28T04:25:08;-2.00;97.30
21637;DHT22;10980;49.596;6.142;2023-02-28T04:28:30;-2.00;97.70
21637;DHT22;10980;49.596;6.142;2023-02-28T04:31:52;-2.00;97.90
21637;DHT22;10980;49.596;6.142;2023-02-28T04:35:15;-2.10;98.80
21637;DHT22;10980;49.596;6.142;2023-02-28T04:38:38;-2.00;99.00
21637;DHT22;10980;49.596;6.142;2023-02-28T04:42:00;-2.00;99.40
21637;DHT22;10980;49.596;6.142;2023-02-28T04:45:22;-2.00;99.60
21637;DHT22;10980;49.596;6.142;2023-02-28T04:48:44;-1.90;99.90
21637;DHT22;10980;49.596;6.142;2023-02-28T04:52:12;-2.00;99.90
21637;DHT22;10980;49.596;6.142;2023-02-28T04:55:42;-2.00;99.90
21637;DHT22;10980;49.596;6.142;2023-02-28T04:59:05;-2.00;99.90
21637;DHT22;10980;49.596;6.142;2023-02-28T05:02:27;-2.00;99.90
21637;DHT22;10980;49.596;6.142;2023-02-28T05:05:52;-2.10;99.90
21637;DHT22;10980;49.596;6.142;2023-02-28T05:09:16;-2.10;99.90
21637;DHT22;10980;49.596;6.142;2023-02-28T05:12:38;-2.00;99.90
21637;DHT22;10980;49.596;6.142;2023-02-28T05:16:02;-2.00;99.90
21637;DHT22;10980;49.596;6.142;2023-02-28T05:19:24;-2.10;99.90
21637;DHT22;10980;49.596;6.142;2023-02-28T05:22:47;-2.10;99.90
21637;DHT22;10980;49.596;6.142;2023-02-28T05:26:14;-2.10;99.90
21637;DHT22;10980;49.596;6.142;2023-02-28T05:29:36;-2.10;99.90
21637;DHT22;10980;49.596;6.142;2023-02-28T05:33:11;-2.10;99.90
21637;DHT22;10980;49.596;6.142;2023-02-28T05:36:33;-2.10;99.90
21637;DHT22;10980;49.596;6.142;2023-02-28T05:40:00;-2.10;99.90
21637;DHT22;10980;49.596;6.142;2023-02-28T05:43:23;-2.20;99.90
21637;DHT22;10980;49.596;6.142;2023-02-28T05:46:47;-2.20;99.90
21637;DHT22;10980;49.596;6.142;2023-02-28T05:50:09;-2.20;99.90
21637;DHT22;10980;49.596;6.142;2023-02-28T05:53:33;-2.20;99.90
21637;DHT22;10980;49.596;6.142;2023-02-28T05:56:55;-2.20;99.90
21637;DHT22;10980;49.596;6.142;2023-02-28T06:00:18;-2.30;99.90
21637;DHT22;10980;49.596;6.142;2023-02-28T06:03:42;-2.30;99.90
21637;DHT22;10980;49.596;6.142;2023-02-28T06:07:04;-2.30;99.90
21637;DHT22;10980;49.596;6.142;2023-02-28T06:10:26;-2.30;99.90
21637;DHT22;10980;49.596;6.142;2023-02-28T06:13:47;-2.30;99.90
21637;DHT22;10980;49.596;6.142;2023-02-28T06:17:10;-2.30;99.90
21637;DHT22;10980;49.596;6.142;2023-02-28T06:20:32;-2.40;99.90
21637;DHT22;10980;49.596;6.142;2023-02-28T06:23:56;-2.40;99.90
21637;DHT22;10980;49.596;6.142;2023-02-28T06:27:20;-2.30;99.90
21637;DHT22;10980;49.596;6.142;2023-02-28T06:30:42;-2.30;99.90
21637;DHT22;10980;49.596;6.142;2023-02-28T06:34:13;-2.30;99.90
21637;DHT22;10980;49.596;6.142;2023-02-28T06:37:42;-2.30;99.90
21637;DHT22;10980;49.596;6.142;2023-02-28T06:41:09;-2.30;99.90
21637;DHT22;10980;49.596;6.142;2023-02-28T06:44:33;-2.30;99.90
21637;DHT22;10980;49.596;6.142;2023-02-28T06:47:57;-2.30;99.90
21637;DHT22;10980;49.596;6.142;2023-02-28T06:51:20;-2.30;99.90
21637;DHT22;10980;49.596;6.142;2023-02-28T06:54:45;-2.20;99.90
21637;DHT22;10980;49.596;6.142;2023-02-28T06:58:07;-2.30;99.90
21637;DHT22;10980;49.596;6.142;2023-02-28T07:01:47;-2.20;99.90
21637;DHT22;10980;49.596;6.142;2023-02-28T07:05:09;-2.10;99.90
21637;DHT22;10980;49.596;6.142;2023-02-28T07:08:35;-2.10;99.90
21637;DHT22;10980;49.596;6.142;2023-02-28T07:11:57;-2.10;99.90
21637;DHT22;10980;49.596;6.142;2023-02-28T07:15:19;-2.00;99.90
21637;DHT22;10980;49.596;6.142;2023-02-28T07:18:47;-1.90;99.90
21637;DHT22;10980;49.596;6.142;2023-02-28T07:22:10;-1.90;99.90
21637;DHT22;10980;49.596;6.142;2023-02-28T07:25:36;-1.80;99.90
21637;DHT22;10980;49.596;6.142;2023-02-28T07:28:57;-1.70;99.90
21637;DHT22;10980;49.596;6.142;2023-02-28T07:32:19;-1.60;99.90
21637;DHT22;10980;49.596;6.142;2023-02-28T07:35:42;-1.60;99.90
21637;DHT22;10980;49.596;6.142;2023-02-28T07:39:06;-1.40;99.70
21637;DHT22;10980;49.596;6.142;2023-02-28T07:42:28;-1.30;99.00
21637;DHT22;10980;49.596;6.142;2023-02-28T07:45:51;-1.00;98.50
21637;DHT22;10980;49.596;6.142;2023-02-28T07:49:13;-0.80;97.10
21637;DHT22;10980;49.596;6.142;2023-02-28T07:52:36;-0.70;96.90
21637;DHT22;10980;49.596;6.142;2023-02-28T07:56:00;-0.50;96.00
21637;DHT22;10980;49.596;6.142;2023-02-28T07:59:23;-0.30;95.30
21637;DHT22;10980;49.596;6.142;2023-02-28T08:02:45;-0.20;94.80
21637;DHT22;10980;49.596;6.142;2023-02-28T08:06:14;0.00;94.20
21637;DHT22;10980;49.596;6.142;2023-02-28T08:09:44;0.10;94.10
21637;DHT22;10980;49.596;6.142;2023-02-28T08:13:06;0.30;93.40
21637;DHT22;10980;49.596;6.142;2023-02-28T08:16:29;0.50;93.10
21637;DHT22;10980;49.596;6.142;2023-02-28T08:19:53;0.60;92.50
21637;DHT22;10980;49.596;6.142;2023-02-28T08:23:15;0.70;92.20
21637;DHT22;10980;49.596;6.142;2023-02-28T08:26:37;0.80;91.80
21637;DHT22;10980;49.596;6.142;2023-02-28T08:29:59;0.80;91.70
21637;DHT22;10980;49.596;6.142;2023-02-28T08:33:24;0.90;91.80
21637;DHT22;10980;49.596;6.142;2023-02-28T08:36:50;0.90;91.10
21637;DHT22;10980;49.596;6.142;2023-02-28T08:40:14;0.90;91.20
21637;DHT22;10980;49.596;6.142;2023-02-28T08:43:40;0.90;91.20
21637;DHT22;10980;49.596;6.142;2023-02-28T08:47:02;1.00;91.00
21637;DHT22;10980;49.596;6.142;2023-02-28T08:50:24;1.30;90.40
21637;DHT22;10980;49.596;6.142;2023-02-28T08:53:46;1.30;89.10
21637;DHT22;10980;49.596;6.142;2023-02-28T08:57:11;1.20;89.60
21637;DHT22;10980;49.596;6.142;2023-02-28T09:00:34;1.30;89.30
21637;DHT22;10980;49.596;6.142;2023-02-28T09:04:09;1.30;89.40
21637;DHT22;10980;49.596;6.142;2023-02-28T09:07:36;1.40;88.80
21637;DHT22;10980;49.596;6.142;2023-02-28T09:11:00;1.60;88.10
21637;DHT22;10980;49.596;6.142;2023-02-28T09:14:24;1.80;85.90
21637;DHT22;10980;49.596;6.142;2023-02-28T09:17:46;1.90;85.70
21637;DHT22;10980;49.596;6.142;2023-02-28T09:21:11;2.00;83.10
21637;DHT22;10980;49.596;6.142;2023-02-28T09:24:36;2.00;83.10
21637;DHT22;10980;49.596;6.142;2023-02-28T09:28:05;2.10;81.70
21637;DHT22;10980;49.596;6.142;2023-02-28T09:31:33;2.10;80.10
21637;DHT22;10980;49.596;6.142;2023-02-28T09:34:55;1.90;79.80
21637;DHT22;10980;49.596;6.142;2023-02-28T09:38:22;1.80;79.90
21637;DHT22;10980;49.596;6.142;2023-02-28T09:41:45;2.10;79.80
21637;DHT22;10980;49.596;6.142;2023-02-28T09:45:24;2.20;78.10
21637;DHT22;10980;49.596;6.142;2023-02-28T09:48:53;2.40;78.10
21637;DHT22;10980;49.596;6.142;2023-02-28T09:52:21;2.40;76.60
21637;DHT22;10980;49.596;6.142;2023-02-28T09:56:02;2.50;74.00
21637;DHT22;10980;49.596;6.142;2023-02-28T10:03:58;2.40;73.80
21637;DHT22;10980;49.596;6.142;2023-02-28T10:11:02;2.60;73.50
21637;DHT22;10980;49.596;6.142;2023-02-28T10:14:30;2.50;72.90
21637;DHT22;10980;49.596;6.142;2023-02-28T10:18:06;2.20;74.50
21637;DHT22;10980;49.596;6.142;2023-02-28T10:25:28;2.60;73.40
21637;DHT22;10980;49.596;6.142;2023-02-28T10:28:51;2.50;73.30
21637;DHT22;10980;49.596;6.142;2023-02-28T10:32:21;2.30;74.30
21637;DHT22;10980;49.596;6.142;2023-02-28T10:35:49;2.30;74.10
21637;DHT22;10980;49.596;6.142;2023-02-28T10:39:41;2.30;74.10
21637;DHT22;10980;49.596;6.142;2023-02-28T10:46:40;2.30;74.50
21637;DHT22;10980;49.596;6.142;2023-02-28T10:50:08;2.20;74.50
21637;DHT22;10980;49.596;6.142;2023-02-28T10:53:55;2.30;75.30
21637;DHT22;10980;49.596;6.142;2023-02-28T10:57:24;2.60;74.10
21637;DHT22;10980;49.596;6.142;2023-02-28T11:00:46;2.40;74.60
21637;DHT22;10980;49.596;6.142;2023-02-28T11:07:57;2.70;73.70
21637;DHT22;10980;49.596;6.142;2023-02-28T11:11:44;2.90;73.40
21637;DHT22;10980;49.596;6.142;2023-02-28T11:15:23;2.90;72.70
21637;DHT22;10980;49.596;6.142;2023-02-28T11:18:49;3.30;72.60
21637;DHT22;10980;49.596;6.142;2023-02-28T11:22:43;3.60;71.50
21637;DHT22;10980;49.596;6.142;2023-02-28T11:26:06;3.20;71.60
21637;DHT22;10980;49.596;6.142;2023-02-28T11:29:33;2.90;72.70
21637;DHT22;10980;49.596;6.142;2023-02-28T11:32:58;2.90;73.60
21637;DHT22;10980;49.596;6.142;2023-02-28T11:36:27;3.20;73.00
21637;DHT22;10980;49.596;6.142;2023-02-28T11:39:54;3.70;71.90
21637;DHT22;10980;49.596;6.142;2023-02-28T11:46:51;3.50;70.60
21637;DHT22;10980;49.596;6.142;2023-02-28T12:01:38;3.70;69.30
21637;DHT22;10980;49.596;6.142;2023-02-28T12:09:28;3.20;70.20
21637;DHT22;10980;49.596;6.142;2023-02-28T12:13:20;3.80;68.50
21637;DHT22;10980;49.596;6.142;2023-02-28T12:29:29;4.40;65.30
21637;DHT22;10980;49.596;6.142;2023-02-28T12:33:16;3.70;66.70
21637;DHT22;10980;49.596;6.142;2023-02-28T12:36:49;3.90;66.90
21637;DHT22;10980;49.596;6.142;2023-02-28T12:40:23;3.70;66.80
21637;DHT22;10980;49.596;6.142;2023-02-28T12:44:04;3.70;67.10
21637;DHT22;10980;49.596;6.142;2023-02-28T12:47:33;3.80;66.70
21637;DHT22;10980;49.596;6.142;2023-02-28T12:50:56;4.10;66.00
21637;DHT22;10980;49.596;6.142;2023-02-28T12:58:45;4.20;64.50
21637;DHT22;10980;49.596;6.142;2023-02-28T13:02:33;4.50;64.00
21637;DHT22;10980;49.596;6.142;2023-02-28T13:10:05;4.40;64.00
21637;DHT22;10980;49.596;6.142;2023-02-28T13:13:30;4.30;64.90
21637;DHT22;10980;49.596;6.142;2023-02-28T13:17:23;4.00;65.50
21637;DHT22;10980;49.596;6.142;2023-02-28T13:20:48;3.90;65.60
21637;DHT22;10980;49.596;6.142;2023-02-28T13:27:57;3.80;67.30
21637;DHT22;10980;49.596;6.142;2023-02-28T13:31:22;3.60;66.90
21637;DHT22;10980;49.596;6.142;2023-02-28T13:35:32;3.50;66.60
21637;DHT22;10980;49.596;6.142;2023-02-28T13:39:56;3.60;66.20
21637;DHT22;10980;49.596;6.142;2023-02-28T13:43:18;3.80;66.50
21637;DHT22;10980;49.596;6.142;2023-02-28T13:50:37;4.40;65.40
21637;DHT22;10980;49.596;6.142;2023-02-28T13:54:11;4.40;64.00
21637;DHT22;10980;49.596;6.142;2023-02-28T14:05:30;4.30;64.10
21637;DHT22;10980;49.596;6.142;2023-02-28T14:12:51;3.90;64.80
21637;DHT22;10980;49.596;6.142;2023-02-28T14:16:22;3.70;65.20
21637;DHT22;10980;49.596;6.142;2023-02-28T14:19:49;3.80;66.00
21637;DHT22;10980;49.596;6.142;2023-02-28T14:27:29;4.30;64.40
21637;DHT22;10980;49.596;6.142;2023-02-28T14:31:23;4.40;64.70
21637;DHT22;10980;49.596;6.142;2023-02-28T14:35:03;4.40;64.00
21637;DHT22;10980;49.596;6.142;2023-02-28T14:39:12;4.40;63.40
21637;DHT22;10980;49.596;6.142;2023-02-28T14:42:37;4.30;63.70
21637;DHT22;10980;49.596;6.142;2023-02-28T14:46:05;4.10;64.40
21637;DHT22;10980;49.596;6.142;2023-02-28T14:49:41;4.10;64.70
21637;DHT22;10980;49.596;6.142;2023-02-28T14:53:15;3.90;65.40
21637;DHT22;10980;49.596;6.142;2023-02-28T14:56:43;4.00;65.40
21637;DHT22;10980;49.596;6.142;2023-02-28T15:00:46;4.00;65.20
21637;DHT22;10980;49.596;6.142;2023-02-28T15:04:25;4.10;65.30
21637;DHT22;10980;49.596;6.142;2023-02-28T15:08:14;4.10;65.50
21637;DHT22;10980;49.596;6.142;2023-02-28T15:11:48;4.10;64.70
21637;DHT22;10980;49.596;6.142;2023-02-28T15:15:17;4.10;65.00
21637;DHT22;10980;49.596;6.142;2023-02-28T15:18:46;4.10;65.50
21637;DHT22;10980;49.596;6.142;2023-02-28T15:22:17;4.00;65.40
21637;DHT22;10980;49.596;6.142;2023-02-28T15:25:51;3.90;65.40
21637;DHT22;10980;49.596;6.142;2023-02-28T15:36:36;3.90;65.90
21637;DHT22;10980;49.596;6.142;2023-02-28T15:40:12;3.90;66.50
21637;DHT22;10980;49.596;6.142;2023-02-28T15:44:17;3.90;66.00
21637;DHT22;10980;49.596;6.142;2023-02-28T15:47:48;3.90;66.10
21637;DHT22;10980;49.596;6.142;2023-02-28T15:51:22;3.80;66.60
21637;DHT22;10980;49.596;6.142;2023-02-28T15:54:51;3.80;66.80
21637;DHT22;10980;49.596;6.142;2023-02-28T15:58:20;3.90;66.90
21637;DHT22;10980;49.596;6.142;2023-02-28T16:01:45;3.90;66.50
21637;DHT22;10980;49.596;6.142;2023-02-28T16:05:34;3.80;66.60
21637;DHT22;10980;49.596;6.142;2023-02-28T16:08:56;3.80;67.00
21637;DHT22;10980;49.596;6.142;2023-02-28T16:12:20;3.70;66.90
21637;DHT22;10980;49.596;6.142;2023-02-28T16:15:44;3.70;67.00
21637;DHT22;10980;49.596;6.142;2023-02-28T16:19:12;3.70;67.30
21637;DHT22;10980;49.596;6.142;2023-02-28T16:22:34;3.60;67.80
21637;DHT22;10980;49.596;6.142;2023-02-28T16:26:03;3.60;68.20
21637;DHT22;10980;49.596;6.142;2023-02-28T16:29:33;3.50;68.00
21637;DHT22;10980;49.596;6.142;2023-02-28T16:32:58;3.50;68.00
21637;DHT22;10980;49.596;6.142;2023-02-28T16:36:22;3.50;68.60
21637;DHT22;10980;49.596;6.142;2023-02-28T16:39:48;3.50;69.00
21637;DHT22;10980;49.596;6.142;2023-02-28T16:43:21;3.40;68.90
21637;DHT22;10980;49.596;6.142;2023-02-28T16:46:48;3.30;69.20
21637;DHT22;10980;49.596;6.142;2023-02-28T16:50:30;3.30;69.60
21637;DHT22;10980;49.596;6.142;2023-02-28T16:53:54;3.20;69.60
21637;DHT22;10980;49.596;6.142;2023-02-28T16:57:21;3.10;69.80
21637;DHT22;10980;49.596;6.142;2023-02-28T17:00:44;3.10;70.30
21637;DHT22;10980;49.596;6.142;2023-02-28T17:04:08;3.00;70.60
21637;DHT22;10980;49.596;6.142;2023-02-28T17:07:33;2.80;71.00
21637;DHT22;10980;49.596;6.142;2023-02-28T17:10:55;2.70;71.40
21637;DHT22;10980;49.596;6.142;2023-02-28T17:14:17;2.70;71.70
21637;DHT22;10980;49.596;6.142;2023-02-28T17:17:40;2.60;72.20
21637;DHT22;10980;49.596;6.142;2023-02-28T17:21:12;2.50;72.20
21637;DHT22;10980;49.596;6.142;2023-02-28T17:24:35;2.40;72.90
21637;DHT22;10980;49.596;6.142;2023-02-28T17:27:57;2.40;73.10
21637;DHT22;10980;49.596;6.142;2023-02-28T17:31:19;2.30;73.30
21637;DHT22;10980;49.596;6.142;2023-02-28T17:34:47;2.30;74.00
21637;DHT22;10980;49.596;6.142;2023-02-28T17:38:16;2.10;74.40
21637;DHT22;10980;49.596;6.142;2023-02-28T17:41:41;2.00;74.70
21637;DHT22;10980;49.596;6.142;2023-02-28T17:45:03;1.90;74.80
21637;DHT22;10980;49.596;6.142;2023-02-28T17:48:25;1.90;74.90
21637;DHT22;10980;49.596;6.142;2023-02-28T17:51:48;1.80;75.10
21637;DHT22;10980;49.596;6.142;2023-02-28T17:55:21;1.70;75.30
21637;DHT22;10980;49.596;6.142;2023-02-28T17:58:43;1.60;75.90
21637;DHT22;10980;49.596;6.142;2023-02-28T18:02:06;1.60;76.30
21637;DHT22;10980;49.596;6.142;2023-02-28T18:05:31;1.50;76.30
21637;DHT22;10980;49.596;6.142;2023-02-28T18:08:54;1.50;76.60
21637;DHT22;10980;49.596;6.142;2023-02-28T18:12:16;1.40;76.80
21637;DHT22;10980;49.596;6.142;2023-02-28T18:15:38;1.30;76.90
21637;DHT22;10980;49.596;6.142;2023-02-28T18:19:07;1.30;77.20
21637;DHT22;10980;49.596;6.142;2023-02-28T18:22:37;1.30;77.40
21637;DHT22;10980;49.596;6.142;2023-02-28T18:26:08;1.30;77.30
21637;DHT22;10980;49.596;6.142;2023-02-28T18:29:30;1.30;77.30
21637;DHT22;10980;49.596;6.142;2023-02-28T18:32:57;1.30;77.50
21637;DHT22;10980;49.596;6.142;2023-02-28T18:36:25;1.30;77.50
21637;DHT22;10980;49.596;6.142;2023-02-28T18:39:50;1.20;77.50
21637;DHT22;10980;49.596;6.142;2023-02-28T18:43:13;1.20;78.00
21637;DHT22;10980;49.596;6.142;2023-02-28T18:46:36;1.10;78.30
21637;DHT22;10980;49.596;6.142;2023-02-28T18:50:00;1.00;78.70
21637;DHT22;10980;49.596;6.142;2023-02-28T18:53:22;0.90;79.00
21637;DHT22;10980;49.596;6.142;2023-02-28T18:56:45;0.90;79.30
21637;DHT22;10980;49.596;6.142;2023-02-28T19:00:18;0.80;79.30
21637;DHT22;10980;49.596;6.142;2023-02-28T19:03:44;0.80;79.80
21637;DHT22;10980;49.596;6.142;2023-02-28T19:07:07;0.80;79.80
21637;DHT22;10980;49.596;6.142;2023-02-28T19:10:29;0.80;79.70
21637;DHT22;10980;49.596;6.142;2023-02-28T19:13:51;0.80;80.10
21637;DHT22;10980;49.596;6.142;2023-02-28T19:17:13;0.70;80.60
21637;DHT22;10980;49.596;6.142;2023-02-28T19:20:38;0.60;80.30
21637;DHT22;10980;49.596;6.142;2023-02-28T19:24:02;0.60;80.80
21637;DHT22;10980;49.596;6.142;2023-02-28T19:27:26;0.60;80.80
21637;DHT22;10980;49.596;6.142;2023-02-28T19:30:49;0.60;81.20
21637;DHT22;10980;49.596;6.142;2023-02-28T19:34:14;0.60;81.00
21637;DHT22;10980;49.596;6.142;2023-02-28T19:37:37;0.60;81.10
21637;DHT22;10980;49.596;6.142;2023-02-28T19:41:08;0.50;81.60
21637;DHT22;10980;49.596;6.142;2023-02-28T19:44:32;0.50;81.80
21637;DHT22;10980;49.596;6.142;2023-02-28T19:47:55;0.50;81.60
21637;DHT22;10980;49.596;6.142;2023-02-28T19:51:17;0.50;81.60
21637;DHT22;10980;49.596;6.142;2023-02-28T19:54:44;0.50;81.90
21637;DHT22;10980;49.596;6.142;2023-02-28T19:58:07;0.40;82.00
21637;DHT22;10980;49.596;6.142;2023-02-28T20:01:31;0.40;82.10
21637;DHT22;10980;49.596;6.142;2023-02-28T20:04:54;0.40;82.30
21637;DHT22;10980;49.596;6.142;2023-02-28T20:08:22;0.40;82.50
21637;DHT22;10980;49.596;6.142;2023-02-28T20:11:44;0.30;82.80
21637;DHT22;10980;49.596;6.142;2023-02-28T20:15:07;0.30;83.00
21637;DHT22;10980;49.596;6.142;2023-02-28T20:18:29;0.30;83.00
21637;DHT22;10980;49.596;6.142;2023-02-28T20:21:51;0.20;83.10
21637;DHT22;10980;49.596;6.142;2023-02-28T20:25:13;0.20;83.20
21637;DHT22;10980;49.596;6.142;2023-02-28T20:28:36;0.20;83.20
21637;DHT22;10980;49.596;6.142;2023-02-28T20:31:58;0.20;83.70
21637;DHT22;10980;49.596;6.142;2023-02-28T20:35:20;0.20;83.40
21637;DHT22;10980;49.596;6.142;2023-02-28T20:38:43;0.10;83.90
21637;DHT22;10980;49.596;6.142;2023-02-28T20:42:06;0.10;84.00
21637;DHT22;10980;49.596;6.142;2023-02-28T20:45:28;0.10;83.80
21637;DHT22;10980;49.596;6.142;2023-02-28T20:48:51;0.10;84.00
21637;DHT22;10980;49.596;6.142;2023-02-28T20:52:14;0.10;84.10
21637;DHT22;10980;49.596;6.142;2023-02-28T20:55:36;0.00;84.20
21637;DHT22;10980;49.596;6.142;2023-02-28T20:58:58;0.00;85.40
21637;DHT22;10980;49.596;6.142;2023-02-28T21:02:20;-0.10;84.90
21637;DHT22;10980;49.596;6.142;2023-02-28T21:05:43;-0.10;85.00
21637;DHT22;10980;49.596;6.142;2023-02-28T21:09:11;-0.10;84.90
21637;DHT22;10980;49.596;6.142;2023-02-28T21:12:35;0.00;84.80
21637;DHT22;10980;49.596;6.142;2023-02-28T21:16:06;0.00;84.80
21637;DHT22;10980;49.596;6.142;2023-02-28T21:19:29;0.00;85.10
21637;DHT22;10980;49.596;6.142;2023-02-28T21:22:58;0.00;85.10
21637;DHT22;10980;49.596;6.142;2023-02-28T21:26:23;-0.10;85.40
21637;DHT22;10980;49.596;6.142;2023-02-28T21:29:45;0.00;85.40
21637;DHT22;10980;49.596;6.142;2023-02-28T21:33:15;-0.10;85.50
21637;DHT22;10980;49.596;6.142;2023-02-28T21:36:40;0.00;85.60
21637;DHT22;10980;49.596;6.142;2023-02-28T21:40:06;0.00;85.80
21637;DHT22;10980;49.596;6.142;2023-02-28T21:43:29;0.00;85.70
21637;DHT22;10980;49.596;6.142;2023-02-28T21:46:51;-0.10;85.60
21637;DHT22;10980;49.596;6.142;2023-02-28T21:50:17;-0.10;85.80
21637;DHT22;10980;49.596;6.142;2023-02-28T21:53:40;-0.10;85.80
21637;DHT22;10980;49.596;6.142;2023-02-28T21:57:03;-0.10;85.90
21637;DHT22;10980;49.596;6.142;2023-02-28T22:00:25;-0.10;85.90
21637;DHT22;10980;49.596;6.142;2023-02-28T22:03:49;0.00;85.60
21637;DHT22;10980;49.596;6.142;2023-02-28T22:07:14;0.00;85.50
21637;DHT22;10980;49.596;6.142;2023-02-28T22:10:40;0.00;85.60
21637;DHT22;10980;49.596;6.142;2023-02-28T22:14:02;0.00;85.80
21637;DHT22;10980;49.596;6.142;2023-02-28T22:17:27;0.00;85.90
21637;DHT22;10980;49.596;6.142;2023-02-28T22:20:54;-0.10;85.80
21637;DHT22;10980;49.596;6.142;2023-02-28T22:24:17;-0.10;86.10
21637;DHT22;10980;49.596;6.142;2023-02-28T22:27:42;-0.10;86.20
21637;DHT22;10980;49.596;6.142;2023-02-28T22:31:20;-0.10;86.10
21637;DHT22;10980;49.596;6.142;2023-02-28T22:34:44;-0.10;86.20
21637;DHT22;10980;49.596;6.142;2023-02-28T22:38:09;-0.10;86.10
21637;DHT22;10980;49.596;6.142;2023-02-28T22:41:32;0.00;85.90
21637;DHT22;10980;49.596;6.142;2023-02-28T22:44:54;0.00;86.00
21637;DHT22;10980;49.596;6.142;2023-02-28T22:48:17;0.00;85.90
21637;DHT22;10980;49.596;6.142;2023-02-28T22:51:41;0.00;85.80
21637;DHT22;10980;49.596;6.142;2023-02-28T22:55:04;0.10;85.80
21637;DHT22;10980;49.596;6.142;2023-02-28T22:58:26;0.10;85.70
21637;DHT22;10980;49.596;6.142;2023-02-28T23:01:48;0.10;85.80
21637;DHT22;10980;49.596;6.142;2023-02-28T23:05:11;0.10;86.00
21637;DHT22;10980;49.596;6.142;2023-02-28T23:08:34;0.10;85.80
21637;DHT22;10980;49.596;6.142;2023-02-28T23:11:56;0.00;86.00
21637;DHT22;10980;49.596;6.142;2023-02-28T23:15:19;0.10;86.10
21637;DHT22;10980;49.596;6.142;2023-02-28T23:18:42;0.00;86.40
21637;DHT22;10980;49.596;6.142;2023-02-28T23:22:04;0.00;86.40
21637;DHT22;10980;49.596;6.142;2023-02-28T23:25:26;0.00;86.50
21637;DHT22;10980;49.596;6.142;2023-02-28T23:28:48;0.00;86.70
21637;DHT22;10980;49.596;6.142;2023-02-28T23:32:11;0.00;86.70
21637;DHT22;10980;49.596;6.142;2023-02-28T23:35:33;-0.10;86.80
21637;DHT22;10980;49.596;6.142;2023-02-28T23:38:55;-0.10;86.80
21637;DHT22;10980;49.596;6.142;2023-02-28T23:42:17;-0.10;87.00
21637;DHT22;10980;49.596;6.142;2023-02-28T23:45:39;-0.10;87.00
21637;DHT22;10980;49.596;6.142;2023-02-28T23:49:14;-0.10;87.00